sensor_id;sensor_type;location;lat;lon;timestamp;temperature;humidity
33863;DHT22;20158;51.436;-2.742;2023-07-31T00:01:49;19.70;74.10
33863;DHT22;20158;51.436;-2.742;2023-07-31T00:04:15;19.70;74.10
33863;DHT22;20158;51.436;-2.742;2023-07-31T00:06:41;19.70;74.20
33863;DHT22;20158;51.436;-2.742;2023-07-31T00:09:07;19.60;74.10
33863;DHT22;20158;51.436;-2.742;2023-07-31T00:11:33;19.60;74.20
33863;DHT22;20158;51.436;-2.742;2023-07-31T00:13:59;19.60;74.20
33863;DHT22;20158;51.436;-2.742;2023-07-31T00:16:25;19.60;74.20
33863;DHT22;20158;51.436;-2.742;2023-07-31T00:18:51;19.60;74.30
33863;DHT22;20158;51.436;-2.742;2023-07-31T00:21:17;19.60;74.30
33863;DHT22;20158;51.436;-2.742;2023-07-31T00:23:43;19.60;74.40
33863;DHT22;20158;51.436;-2.742;2023-07-31T00:26:09;19.60;74.40
33863;DHT22;20158;51.436;-2.742;2023-07-31T00:28:35;19.60;74.50
33863;DHT22;20158;51.436;-2.742;2023-07-31T00:31:01;19.60;74.60
33863;DHT22;20158;51.436;-2.742;2023-07-31T00:33:31;19.60;74.70
33863;DHT22;20158;51.436;-2.742;2023-07-31T00:35:57;19.60;74.70
33863;DHT22;20158;51.436;-2.742;2023-07-31T00:38:25;19.60;74.70
33863;DHT22;20158;51.436;-2.742;2023-07-31T00:40:51;19.60;74.80
33863;DHT22;20158;51.436;-2.742;2023-07-31T00:43:17;19.60;74.90
33863;DHT22;20158;51.436;-2.742;2023-07-31T00:45:44;19.60;74.90
33863;DHT22;20158;51.436;-2.742;2023-07-31T00:48:11;19.60;75.00
33863;DHT22;20158;51.436;-2.742;2023-07-31T00:50:37;19.60;75.00
33863;DHT22;20158;51.436;-2.742;2023-07-31T00:53:04;19.60;75.00
33863;DHT22;20158;51.436;-2.742;2023-07-31T00:55:33;19.60;75.10
33863;DHT22;20158;51.436;-2.742;2023-07-31T00:57:59;19.60;75.20
33863;DHT22;20158;51.436;-2.742;2023-07-31T01:00:26;19.60;75.20
33863;DHT22;20158;51.436;-2.742;2023-07-31T01:02:52;19.60;75.20
33863;DHT22;20158;51.436;-2.742;2023-07-31T01:05:25;19.60;75.30
33863;DHT22;20158;51.436;-2.742;2023-07-31T01:08:05;19.60;75.40
33863;DHT22;20158;51.436;-2.742;2023-07-31T01:10:50;19.60;75.30
33863;DHT22;20158;51.436;-2.742;2023-07-31T01:13:19;19.50;75.30
33863;DHT22;20158;51.436;-2.742;2023-07-31T01:15:45;19.60;75.40
33863;DHT22;20158;51.436;-2.742;2023-07-31T01:18:11;19.50;75.30
33863;DHT22;20158;51.436;-2.742;2023-07-31T01:20:37;19.50;75.30
33863;DHT22;20158;51.436;-2.742;2023-07-31T01:23:22;19.50;75.40
33863;DHT22;20158;51.436;-2.742;2023-07-31T01:26:01;19.50;75.60
33863;DHT22;20158;51.436;-2.742;2023-07-31T01:31:16;19.50;75.70
33863;DHT22;20158;51.436;-2.742;2023-07-31T01:33:42;19.50;75.70
33863;DHT22;20158;51.436;-2.742;2023-07-31T01:36:08;19.50;75.70
33863;DHT22;20158;51.436;-2.742;2023-07-31T01:38:35;19.50;75.70
33863;DHT22;20158;51.436;-2.742;2023-07-31T01:41:01;19.50;75.80
33863;DHT22;20158;51.436;-2.742;2023-07-31T01:43:27;19.50;75.80
33863;DHT22;20158;51.436;-2.742;2023-07-31T01:45:53;19.50;75.90
33863;DHT22;20158;51.436;-2.742;2023-07-31T01:48:19;19.50;76.00
33863;DHT22;20158;51.436;-2.742;2023-07-31T01:50:45;19.50;76.00
33863;DHT22;20158;51.436;-2.742;2023-07-31T01:53:11;19.50;76.10
33863;DHT22;20158;51.436;-2.742;2023-07-31T01:55:39;19.50;76.10
33863;DHT22;20158;51.436;-2.742;2023-07-31T01:58:04;19.50;76.10
33863;DHT22;20158;51.436;-2.742;2023-07-31T02:00:30;19.40;76.00
33863;DHT22;20158;51.436;-2.742;2023-07-31T02:02:56;19.50;76.20
33863;DHT22;20158;51.436;-2.742;2023-07-31T02:05:23;19.50;76.30
33863;DHT22;20158;51.436;-2.742;2023-07-31T02:07:49;19.50;76.40
33863;DHT22;20158;51.436;-2.742;2023-07-31T02:10:15;19.50;76.50
33863;DHT22;20158;51.436;-2.742;2023-07-31T02:12:40;19.50;76.50
33863;DHT22;20158;51.436;-2.742;2023-07-31T02:15:07;19.50;76.60
33863;DHT22;20158;51.436;-2.742;2023-07-31T02:17:33;19.50;76.70
33863;DHT22;20158;51.436;-2.742;2023-07-31T02:20:00;19.50;76.70
33863;DHT22;20158;51.436;-2.742;2023-07-31T02:22:26;19.50;76.80
33863;DHT22;20158;51.436;-2.742;2023-07-31T02:24:52;19.50;76.80
33863;DHT22;20158;51.436;-2.742;2023-07-31T02:27:21;19.50;76.90
33863;DHT22;20158;51.436;-2.742;2023-07-31T02:29:49;19.50;76.90
33863;DHT22;20158;51.436;-2.742;2023-07-31T02:32:15;19.50;77.00
33863;DHT22;20158;51.436;-2.742;2023-07-31T02:34:42;19.50;77.00
33863;DHT22;20158;51.436;-2.742;2023-07-31T02:37:07;19.50;77.10
33863;DHT22;20158;51.436;-2.742;2023-07-31T02:39:33;19.50;77.10
33863;DHT22;20158;51.436;-2.742;2023-07-31T02:42:00;19.50;77.20
33863;DHT22;20158;51.436;-2.742;2023-07-31T02:44:26;19.50;77.30
33863;DHT22;20158;51.436;-2.742;2023-07-31T02:46:52;19.50;77.30
33863;DHT22;20158;51.436;-2.742;2023-07-31T02:49:20;19.50;77.30
33863;DHT22;20158;51.436;-2.742;2023-07-31T02:51:46;19.50;77.40
33863;DHT22;20158;51.436;-2.742;2023-07-31T02:54:12;19.50;77.40
33863;DHT22;20158;51.436;-2.742;2023-07-31T02:56:38;19.50;77.60
33863;DHT22;20158;51.436;-2.742;2023-07-31T02:59:04;19.50;77.40
33863;DHT22;20158;51.436;-2.742;2023-07-31T03:01:31;19.50;77.40
33863;DHT22;20158;51.436;-2.742;2023-07-31T03:03:57;19.50;77.50
33863;DHT22;20158;51.436;-2.742;2023-07-31T03:06:23;19.50;77.50
33863;DHT22;20158;51.436;-2.742;2023-07-31T03:08:49;19.50;78.00
33863;DHT22;20158;51.436;-2.742;2023-07-31T03:11:15;19.50;77.50
33863;DHT22;20158;51.436;-2.742;2023-07-31T03:13:41;19.50;77.60
33863;DHT22;20158;51.436;-2.742;2023-07-31T03:16:07;19.50;77.60
33863;DHT22;20158;51.436;-2.742;2023-07-31T03:18:33;19.50;77.60
33863;DHT22;20158;51.436;-2.742;2023-07-31T03:20:59;19.50;77.70
33863;DHT22;20158;51.436;-2.742;2023-07-31T03:23:25;19.50;77.70
33863;DHT22;20158;51.436;-2.742;2023-07-31T03:25:58;19.50;77.80
33863;DHT22;20158;51.436;-2.742;2023-07-31T03:28:27;19.50;77.80
33863;DHT22;20158;51.436;-2.742;2023-07-31T03:30:53;19.50;77.80
33863;DHT22;20158;51.436;-2.742;2023-07-31T03:33:19;19.50;77.80
33863;DHT22;20158;51.436;-2.742;2023-07-31T03:35:45;19.50;77.90
33863;DHT22;20158;51.436;-2.742;2023-07-31T03:38:11;19.50;77.90
33863;DHT22;20158;51.436;-2.742;2023-07-31T03:40:37;19.50;77.90
33863;DHT22;20158;51.436;-2.742;2023-07-31T03:43:03;19.40;77.80
33863;DHT22;20158;51.436;-2.742;2023-07-31T03:45:29;19.40;77.80
33863;DHT22;20158;51.436;-2.742;2023-07-31T03:47:55;19.40;77.80
33863;DHT22;20158;51.436;-2.742;2023-07-31T03:50:23;19.40;77.80
33863;DHT22;20158;51.436;-2.742;2023-07-31T03:52:50;19.40;77.80
33863;DHT22;20158;51.436;-2.742;2023-07-31T03:55:17;19.40;77.80
33863;DHT22;20158;51.436;-2.742;2023-07-31T03:57:43;19.40;77.80
33863;DHT22;20158;51.436;-2.742;2023-07-31T04:00:10;19.40;77.80
33863;DHT22;20158;51.436;-2.742;2023-07-31T04:02:40;19.40;77.80
33863;DHT22;20158;51.436;-2.742;2023-07-31T04:05:07;19.40;77.80
33863;DHT22;20158;51.436;-2.742;2023-07-31T04:07:33;19.40;77.80
33863;DHT22;20158;51.436;-2.742;2023-07-31T04:10:00;19.30;77.60
33863;DHT22;20158;51.436;-2.742;2023-07-31T04:12:26;19.30;77.60
33863;DHT22;20158;51.436;-2.742;2023-07-31T04:14:52;19.30;78.20
33863;DHT22;20158;51.436;-2.742;2023-07-31T04:17:18;19.30;77.70
33863;DHT22;20158;51.436;-2.742;2023-07-31T04:19:44;19.30;77.70
33863;DHT22;20158;51.436;-2.742;2023-07-31T04:22:10;19.30;77.70
33863;DHT22;20158;51.436;-2.742;2023-07-31T04:24:36;19.30;77.70
33863;DHT22;20158;51.436;-2.742;2023-07-31T04:27:02;19.30;78.30
33863;DHT22;20158;51.436;-2.742;2023-07-31T04:29:28;19.30;77.80
33863;DHT22;20158;51.436;-2.742;2023-07-31T04:31:54;19.30;77.90
33863;DHT22;20158;51.436;-2.742;2023-07-31T04:34:20;19.30;77.80
33863;DHT22;20158;51.436;-2.742;2023-07-31T04:36:45;19.20;77.70
33863;DHT22;20158;51.436;-2.742;2023-07-31T04:39:11;19.20;77.70
33863;DHT22;20158;51.436;-2.742;2023-07-31T04:41:37;19.20;77.70
33863;DHT22;20158;51.436;-2.742;2023-07-31T04:44:03;19.20;77.80
33863;DHT22;20158;51.436;-2.742;2023-07-31T04:46:29;19.20;77.80
33863;DHT22;20158;51.436;-2.742;2023-07-31T04:48:56;19.20;77.80
33863;DHT22;20158;51.436;-2.742;2023-07-31T04:51:22;19.20;77.90
33863;DHT22;20158;51.436;-2.742;2023-07-31T04:53:49;19.20;77.90
33863;DHT22;20158;51.436;-2.742;2023-07-31T04:56:15;19.20;77.80
33863;DHT22;20158;51.436;-2.742;2023-07-31T04:58:41;19.20;77.90
33863;DHT22;20158;51.436;-2.742;2023-07-31T05:01:07;19.20;77.80
33863;DHT22;20158;51.436;-2.742;2023-07-31T05:03:33;19.20;77.80
33863;DHT22;20158;51.436;-2.742;2023-07-31T05:05:59;19.20;77.90
33863;DHT22;20158;51.436;-2.742;2023-07-31T05:08:25;19.20;77.80
33863;DHT22;20158;51.436;-2.742;2023-07-31T05:10:51;19.20;77.80
33863;DHT22;20158;51.436;-2.742;2023-07-31T05:13:17;19.20;77.80
33863;DHT22;20158;51.436;-2.742;2023-07-31T05:15:43;19.20;77.80
33863;DHT22;20158;51.436;-2.742;2023-07-31T05:18:09;19.20;77.80
33863;DHT22;20158;51.436;-2.742;2023-07-31T05:20:35;19.20;77.80
33863;DHT22;20158;51.436;-2.742;2023-07-31T05:23:01;19.20;77.80
33863;DHT22;20158;51.436;-2.742;2023-07-31T05:25:27;19.20;77.80
33863;DHT22;20158;51.436;-2.742;2023-07-31T05:27:53;19.20;78.00
33863;DHT22;20158;51.436;-2.742;2023-07-31T05:30:19;19.30;78.70
33863;DHT22;20158;51.436;-2.742;2023-07-31T05:32:45;19.30;79.00
33863;DHT22;20158;51.436;-2.742;2023-07-31T05:35:11;19.40;79.60
33863;DHT22;20158;51.436;-2.742;2023-07-31T05:37:37;19.50;80.10
33863;DHT22;20158;51.436;-2.742;2023-07-31T05:40:03;19.60;80.50
33863;DHT22;20158;51.436;-2.742;2023-07-31T05:42:29;19.60;80.60
33863;DHT22;20158;51.436;-2.742;2023-07-31T05:44:55;19.70;81.00
33863;DHT22;20158;51.436;-2.742;2023-07-31T05:47:21;19.80;81.20
33863;DHT22;20158;51.436;-2.742;2023-07-31T05:49:47;19.80;81.20
33863;DHT22;20158;51.436;-2.742;2023-07-31T05:52:13;19.90;81.50
33863;DHT22;20158;51.436;-2.742;2023-07-31T05:54:39;19.90;81.40
33863;DHT22;20158;51.436;-2.742;2023-07-31T05:57:05;20.00;81.60
33863;DHT22;20158;51.436;-2.742;2023-07-31T05:59:31;20.10;81.70
33863;DHT22;20158;51.436;-2.742;2023-07-31T06:01:59;20.10;81.50
33863;DHT22;20158;51.436;-2.742;2023-07-31T06:04:25;20.20;81.90
33863;DHT22;20158;51.436;-2.742;2023-07-31T06:06:51;20.30;81.30
33863;DHT22;20158;51.436;-2.742;2023-07-31T06:09:17;20.30;81.10
33863;DHT22;20158;51.436;-2.742;2023-07-31T06:11:43;20.40;81.00
33863;DHT22;20158;51.436;-2.742;2023-07-31T06:14:09;20.40;80.90
33863;DHT22;20158;51.436;-2.742;2023-07-31T06:16:35;20.50;80.70
33863;DHT22;20158;51.436;-2.742;2023-07-31T06:19:01;20.50;80.50
33863;DHT22;20158;51.436;-2.742;2023-07-31T06:21:27;20.40;80.20
33863;DHT22;20158;51.436;-2.742;2023-07-31T06:23:53;20.40;80.10
33863;DHT22;20158;51.436;-2.742;2023-07-31T06:26:19;20.40;80.00
33863;DHT22;20158;51.436;-2.742;2023-07-31T06:28:45;20.40;79.90
33863;DHT22;20158;51.436;-2.742;2023-07-31T06:31:12;20.40;79.80
33863;DHT22;20158;51.436;-2.742;2023-07-31T06:33:38;20.40;79.70
33863;DHT22;20158;51.436;-2.742;2023-07-31T06:36:04;20.40;79.50
33863;DHT22;20158;51.436;-2.742;2023-07-31T06:38:30;20.30;79.20
33863;DHT22;20158;51.436;-2.742;2023-07-31T06:40:56;20.40;79.20
33863;DHT22;20158;51.436;-2.742;2023-07-31T06:43:22;20.40;79.00
33863;DHT22;20158;51.436;-2.742;2023-07-31T06:45:48;20.40;78.80
33863;DHT22;20158;51.436;-2.742;2023-07-31T06:48:16;20.50;78.80
33863;DHT22;20158;51.436;-2.742;2023-07-31T06:50:42;20.50;78.50
33863;DHT22;20158;51.436;-2.742;2023-07-31T06:53:08;20.60;78.40
33863;DHT22;20158;51.436;-2.742;2023-07-31T06:55:34;20.70;78.30
33863;DHT22;20158;51.436;-2.742;2023-07-31T06:58:00;20.80;78.10
33863;DHT22;20158;51.436;-2.742;2023-07-31T07:00:27;20.90;78.00
33863;DHT22;20158;51.436;-2.742;2023-07-31T07:02:53;21.00;77.80
33863;DHT22;20158;51.436;-2.742;2023-07-31T07:05:18;21.10;77.60
33863;DHT22;20158;51.436;-2.742;2023-07-31T07:07:44;21.10;77.30
33863;DHT22;20158;51.436;-2.742;2023-07-31T07:10:11;21.20;77.20
33863;DHT22;20158;51.436;-2.742;2023-07-31T07:12:37;21.30;77.10
33863;DHT22;20158;51.436;-2.742;2023-07-31T07:15:03;21.30;76.90
33863;DHT22;20158;51.436;-2.742;2023-07-31T07:17:30;21.40;76.80
33863;DHT22;20158;51.436;-2.742;2023-07-31T07:19:59;21.40;76.60
33863;DHT22;20158;51.436;-2.742;2023-07-31T07:22:26;21.40;77.00
33863;DHT22;20158;51.436;-2.742;2023-07-31T07:24:53;21.40;76.30
33863;DHT22;20158;51.436;-2.742;2023-07-31T07:27:19;21.40;76.20
33863;DHT22;20158;51.436;-2.742;2023-07-31T07:29:46;21.50;76.20
33863;DHT22;20158;51.436;-2.742;2023-07-31T07:32:12;21.60;76.10
33863;DHT22;20158;51.436;-2.742;2023-07-31T07:34:38;21.60;75.90
33863;DHT22;20158;51.436;-2.742;2023-07-31T07:37:04;21.70;75.80
33863;DHT22;20158;51.436;-2.742;2023-07-31T07:39:31;21.80;75.70
33863;DHT22;20158;51.436;-2.742;2023-07-31T07:41:56;21.90;75.50
33863;DHT22;20158;51.436;-2.742;2023-07-31T07:44:22;21.90;75.20
33863;DHT22;20158;51.436;-2.742;2023-07-31T07:46:48;22.00;75.00
33863;DHT22;20158;51.436;-2.742;2023-07-31T07:49:14;22.00;74.70
33863;DHT22;20158;51.436;-2.742;2023-07-31T07:51:40;22.00;74.50
33863;DHT22;20158;51.436;-2.742;2023-07-31T07:54:06;22.00;74.40
33863;DHT22;20158;51.436;-2.742;2023-07-31T07:56:33;22.00;74.30
33863;DHT22;20158;51.436;-2.742;2023-07-31T07:58:59;22.00;74.70
33863;DHT22;20158;51.436;-2.742;2023-07-31T08:01:25;22.00;74.00
33863;DHT22;20158;51.436;-2.742;2023-07-31T08:03:51;21.90;73.70
33863;DHT22;20158;51.436;-2.742;2023-07-31T08:06:17;21.90;73.60
33863;DHT22;20158;51.436;-2.742;2023-07-31T08:08:43;21.90;73.50
33863;DHT22;20158;51.436;-2.742;2023-07-31T08:11:09;21.80;73.30
33863;DHT22;20158;51.436;-2.742;2023-07-31T08:13:35;21.80;73.30
33863;DHT22;20158;51.436;-2.742;2023-07-31T08:16:03;21.70;73.30
33863;DHT22;20158;51.436;-2.742;2023-07-31T08:18:31;21.70;73.30
33863;DHT22;20158;51.436;-2.742;2023-07-31T08:20:58;21.80;73.40
33863;DHT22;20158;51.436;-2.742;2023-07-31T08:23:24;21.80;73.30
33863;DHT22;20158;51.436;-2.742;2023-07-31T08:25:49;21.90;73.20
33863;DHT22;20158;51.436;-2.742;2023-07-31T08:28:16;22.00;73.20
33863;DHT22;20158;51.436;-2.742;2023-07-31T08:30:42;22.10;73.00
33863;DHT22;20158;51.436;-2.742;2023-07-31T08:33:08;22.20;72.90
33863;DHT22;20158;51.436;-2.742;2023-07-31T08:35:34;22.30;72.80
33863;DHT22;20158;51.436;-2.742;2023-07-31T08:38:00;22.40;72.70
33863;DHT22;20158;51.436;-2.742;2023-07-31T08:40:26;22.40;72.40
33863;DHT22;20158;51.436;-2.742;2023-07-31T08:42:55;22.50;72.40
33863;DHT22;20158;51.436;-2.742;2023-07-31T08:45:22;22.50;72.30
33863;DHT22;20158;51.436;-2.742;2023-07-31T08:47:50;22.50;72.20
33863;DHT22;20158;51.436;-2.742;2023-07-31T08:50:19;22.50;72.10
33863;DHT22;20158;51.436;-2.742;2023-07-31T08:52:49;22.40;71.90
33863;DHT22;20158;51.436;-2.742;2023-07-31T08:55:15;22.40;71.90
33863;DHT22;20158;51.436;-2.742;2023-07-31T08:57:42;22.40;71.90
33863;DHT22;20158;51.436;-2.742;2023-07-31T09:00:10;22.40;71.70
33863;DHT22;20158;51.436;-2.742;2023-07-31T09:02:52;22.50;71.70
33863;DHT22;20158;51.436;-2.742;2023-07-31T09:05:21;22.60;71.70
33863;DHT22;20158;51.436;-2.742;2023-07-31T09:07:49;22.60;71.50
33863;DHT22;20158;51.436;-2.742;2023-07-31T09:10:16;22.60;71.20
33863;DHT22;20158;51.436;-2.742;2023-07-31T09:12:42;22.60;71.20
33863;DHT22;20158;51.436;-2.742;2023-07-31T09:15:09;22.60;71.10
33863;DHT22;20158;51.436;-2.742;2023-07-31T09:17:36;22.50;71.00
33863;DHT22;20158;51.436;-2.742;2023-07-31T09:20:19;22.40;70.90
33863;DHT22;20158;51.436;-2.742;2023-07-31T09:22:47;22.40;70.80
33863;DHT22;20158;51.436;-2.742;2023-07-31T09:25:21;22.40;70.80
33863;DHT22;20158;51.436;-2.742;2023-07-31T09:27:54;22.50;70.70
33863;DHT22;20158;51.436;-2.742;2023-07-31T09:30:21;22.50;70.50
33863;DHT22;20158;51.436;-2.742;2023-07-31T09:32:48;22.60;70.50
33863;DHT22;20158;51.436;-2.742;2023-07-31T09:35:27;22.70;70.40
33863;DHT22;20158;51.436;-2.742;2023-07-31T09:37:55;22.80;70.20
33863;DHT22;20158;51.436;-2.742;2023-07-31T09:43:07;23.00;70.50
33863;DHT22;20158;51.436;-2.742;2023-07-31T09:45:35;23.20;69.80
33863;DHT22;20158;51.436;-2.742;2023-07-31T09:48:02;23.30;69.60
33863;DHT22;20158;51.436;-2.742;2023-07-31T09:50:29;23.50;69.60
33863;DHT22;20158;51.436;-2.742;2023-07-31T09:52:55;23.60;69.40
33863;DHT22;20158;51.436;-2.742;2023-07-31T09:55:21;23.80;69.30
33863;DHT22;20158;51.436;-2.742;2023-07-31T09:57:48;23.90;68.90
33863;DHT22;20158;51.436;-2.742;2023-07-31T10:00:17;24.10;68.70
33863;DHT22;20158;51.436;-2.742;2023-07-31T10:02:47;24.20;68.40
33863;DHT22;20158;51.436;-2.742;2023-07-31T10:05:16;24.10;67.90
33863;DHT22;20158;51.436;-2.742;2023-07-31T10:07:51;24.10;67.90
33863;DHT22;20158;51.436;-2.742;2023-07-31T10:10:20;24.00;67.80
33863;DHT22;20158;51.436;-2.742;2023-07-31T10:12:48;24.00;67.80
33863;DHT22;20158;51.436;-2.742;2023-07-31T10:15:15;23.90;67.60
33863;DHT22;20158;51.436;-2.742;2023-07-31T10:17:41;23.80;67.50
33863;DHT22;20158;51.436;-2.742;2023-07-31T10:20:08;23.70;67.30
33863;DHT22;20158;51.436;-2.742;2023-07-31T10:22:35;23.80;67.60
33863;DHT22;20158;51.436;-2.742;2023-07-31T10:25:02;23.80;67.50
33863;DHT22;20158;51.436;-2.742;2023-07-31T10:27:29;23.90;67.40
33863;DHT22;20158;51.436;-2.742;2023-07-31T10:29:56;24.10;67.40
33863;DHT22;20158;51.436;-2.742;2023-07-31T10:32:24;24.20;67.10
33863;DHT22;20158;51.436;-2.742;2023-07-31T10:34:52;24.30;66.80
33863;DHT22;20158;51.436;-2.742;2023-07-31T10:40:00;24.40;66.40
33863;DHT22;20158;51.436;-2.742;2023-07-31T10:42:48;24.30;66.20
33863;DHT22;20158;51.436;-2.742;2023-07-31T10:45:33;24.20;66.10
33863;DHT22;20158;51.436;-2.742;2023-07-31T10:48:04;24.10;66.20
33863;DHT22;20158;51.436;-2.742;2023-07-31T10:50:31;24.00;66.40
33863;DHT22;20158;51.436;-2.742;2023-07-31T10:53:01;23.90;66.40
33863;DHT22;20158;51.436;-2.742;2023-07-31T10:55:39;23.80;66.40
33863;DHT22;20158;51.436;-2.742;2023-07-31T10:58:08;23.70;66.40
33863;DHT22;20158;51.436;-2.742;2023-07-31T11:00:37;23.60;66.30
33863;DHT22;20158;51.436;-2.742;2023-07-31T11:03:08;23.50;66.40
33863;DHT22;20158;51.436;-2.742;2023-07-31T11:05:50;23.50;66.50
33863;DHT22;20158;51.436;-2.742;2023-07-31T11:10:50;23.40;66.40
33863;DHT22;20158;51.436;-2.742;2023-07-31T11:13:17;23.40;66.50
33863;DHT22;20158;51.436;-2.742;2023-07-31T11:15:43;23.40;66.50
33863;DHT22;20158;51.436;-2.742;2023-07-31T11:18:08;23.40;66.50
33863;DHT22;20158;51.436;-2.742;2023-07-31T11:20:37;23.30;66.40
33863;DHT22;20158;51.436;-2.742;2023-07-31T11:23:08;23.20;66.30
33863;DHT22;20158;51.436;-2.742;2023-07-31T11:25:35;23.10;66.30
33863;DHT22;20158;51.436;-2.742;2023-07-31T11:28:14;23.10;66.50
33863;DHT22;20158;51.436;-2.742;2023-07-31T11:30:42;23.00;66.60
33863;DHT22;20158;51.436;-2.742;2023-07-31T11:33:09;22.90;66.50
33863;DHT22;20158;51.436;-2.742;2023-07-31T11:35:44;22.90;66.70
33863;DHT22;20158;51.436;-2.742;2023-07-31T11:40:50;22.70;66.70
33863;DHT22;20158;51.436;-2.742;2023-07-31T11:43:17;22.70;66.90
33863;DHT22;20158;51.436;-2.742;2023-07-31T11:45:50;22.60;67.00
33863;DHT22;20158;51.436;-2.742;2023-07-31T11:50:51;22.50;67.20
33863;DHT22;20158;51.436;-2.742;2023-07-31T11:53:22;22.50;67.30
33863;DHT22;20158;51.436;-2.742;2023-07-31T11:55:49;22.40;67.20
33863;DHT22;20158;51.436;-2.742;2023-07-31T11:58:16;22.40;67.40
33863;DHT22;20158;51.436;-2.742;2023-07-31T12:00:43;22.30;67.40
33863;DHT22;20158;51.436;-2.742;2023-07-31T12:03:09;22.30;67.50
33863;DHT22;20158;51.436;-2.742;2023-07-31T12:05:37;22.30;67.60
33863;DHT22;20158;51.436;-2.742;2023-07-31T12:08:09;22.30;67.60
33863;DHT22;20158;51.436;-2.742;2023-07-31T12:10:37;22.30;67.70
33863;DHT22;20158;51.436;-2.742;2023-07-31T12:13:06;22.30;67.70
33863;DHT22;20158;51.436;-2.742;2023-07-31T12:15:37;22.30;67.80
33863;DHT22;20158;51.436;-2.742;2023-07-31T12:18:08;22.20;67.70
33863;DHT22;20158;51.436;-2.742;2023-07-31T12:20:35;22.10;67.70
33863;DHT22;20158;51.436;-2.742;2023-07-31T12:23:01;22.10;67.80
33863;DHT22;20158;51.436;-2.742;2023-07-31T12:25:29;22.00;67.80
33863;DHT22;20158;51.436;-2.742;2023-07-31T12:27:55;21.90;67.90
33863;DHT22;20158;51.436;-2.742;2023-07-31T12:30:29;21.90;68.10
33863;DHT22;20158;51.436;-2.742;2023-07-31T12:32:55;21.80;68.20
33863;DHT22;20158;51.436;-2.742;2023-07-31T12:35:21;21.80;68.20
33863;DHT22;20158;51.436;-2.742;2023-07-31T12:37:47;21.70;68.20
33863;DHT22;20158;51.436;-2.742;2023-07-31T12:40:13;21.70;68.30
33863;DHT22;20158;51.436;-2.742;2023-07-31T12:42:41;21.60;68.30
33863;DHT22;20158;51.436;-2.742;2023-07-31T12:45:07;21.60;68.50
33863;DHT22;20158;51.436;-2.742;2023-07-31T12:47:33;21.50;68.40
33863;DHT22;20158;51.436;-2.742;2023-07-31T12:50:00;21.50;68.60
33863;DHT22;20158;51.436;-2.742;2023-07-31T12:52:26;21.50;68.70
33863;DHT22;20158;51.436;-2.742;2023-07-31T12:54:52;21.40;68.70
33863;DHT22;20158;51.436;-2.742;2023-07-31T12:57:18;21.40;68.80
33863;DHT22;20158;51.436;-2.742;2023-07-31T12:59:45;21.40;68.70
33863;DHT22;20158;51.436;-2.742;2023-07-31T13:02:11;21.50;68.90
33863;DHT22;20158;51.436;-2.742;2023-07-31T13:04:37;21.60;68.90
33863;DHT22;20158;51.436;-2.742;2023-07-31T13:07:03;21.60;68.90
33863;DHT22;20158;51.436;-2.742;2023-07-31T13:09:29;21.70;69.00
33863;DHT22;20158;51.436;-2.742;2023-07-31T13:11:55;21.70;68.90
33863;DHT22;20158;51.436;-2.742;2023-07-31T13:14:21;21.90;69.10
33863;DHT22;20158;51.436;-2.742;2023-07-31T13:16:47;22.00;69.00
33863;DHT22;20158;51.436;-2.742;2023-07-31T13:19:13;22.20;68.90
33863;DHT22;20158;51.436;-2.742;2023-07-31T13:21:39;22.40;69.10
33863;DHT22;20158;51.436;-2.742;2023-07-31T13:24:05;22.50;68.80
33863;DHT22;20158;51.436;-2.742;2023-07-31T13:26:31;22.60;68.70
33863;DHT22;20158;51.436;-2.742;2023-07-31T13:28:57;22.70;68.70
33863;DHT22;20158;51.436;-2.742;2023-07-31T13:31:23;22.70;68.70
33863;DHT22;20158;51.436;-2.742;2023-07-31T13:33:49;22.80;68.80
33863;DHT22;20158;51.436;-2.742;2023-07-31T13:36:15;22.80;69.10
33863;DHT22;20158;51.436;-2.742;2023-07-31T13:38:41;22.90;68.60
33863;DHT22;20158;51.436;-2.742;2023-07-31T13:41:07;23.00;68.70
33863;DHT22;20158;51.436;-2.742;2023-07-31T13:43:33;23.10;68.50
33863;DHT22;20158;51.436;-2.742;2023-07-31T13:45:58;23.30;68.40
33863;DHT22;20158;51.436;-2.742;2023-07-31T13:48:36;23.60;68.40
33863;DHT22;20158;51.436;-2.742;2023-07-31T13:51:02;23.90;68.20
33863;DHT22;20158;51.436;-2.742;2023-07-31T13:53:28;24.30;68.10
33863;DHT22;20158;51.436;-2.742;2023-07-31T13:55:54;24.60;67.80
33863;DHT22;20158;51.436;-2.742;2023-07-31T13:58:20;25.00;67.60
33863;DHT22;20158;51.436;-2.742;2023-07-31T14:00:46;25.30;66.90
33863;DHT22;20158;51.436;-2.742;2023-07-31T14:03:12;25.60;66.40
33863;DHT22;20158;51.436;-2.742;2023-07-31T14:05:38;25.90;66.00
33863;DHT22;20158;51.436;-2.742;2023-07-31T14:08:04;26.20;65.40
33863;DHT22;20158;51.436;-2.742;2023-07-31T14:10:30;26.40;64.80
33863;DHT22;20158;51.436;-2.742;2023-07-31T14:12:56;26.60;64.30
33863;DHT22;20158;51.436;-2.742;2023-07-31T14:15:22;26.70;63.90
33863;DHT22;20158;51.436;-2.742;2023-07-31T14:17:48;26.80;63.70
33863;DHT22;20158;51.436;-2.742;2023-07-31T14:20:14;26.80;63.50
33863;DHT22;20158;51.436;-2.742;2023-07-31T14:22:40;26.80;63.30
33863;DHT22;20158;51.436;-2.742;2023-07-31T14:25:06;26.90;63.00
33863;DHT22;20158;51.436;-2.742;2023-07-31T14:27:33;27.10;62.70
33863;DHT22;20158;51.436;-2.742;2023-07-31T14:29:59;27.20;62.20
33863;DHT22;20158;51.436;-2.742;2023-07-31T14:32:25;27.40;61.90
33863;DHT22;20158;51.436;-2.742;2023-07-31T14:34:51;27.60;61.50
33863;DHT22;20158;51.436;-2.742;2023-07-31T14:37:17;27.70;61.00
33863;DHT22;20158;51.436;-2.742;2023-07-31T14:39:43;27.90;60.60
33863;DHT22;20158;51.436;-2.742;2023-07-31T14:42:09;28.10;60.20
33863;DHT22;20158;51.436;-2.742;2023-07-31T14:44:35;28.30;59.70
33863;DHT22;20158;51.436;-2.742;2023-07-31T14:47:01;28.50;59.20
33863;DHT22;20158;51.436;-2.742;2023-07-31T14:49:27;28.80;58.80
33863;DHT22;20158;51.436;-2.742;2023-07-31T14:51:54;29.00;58.30
33863;DHT22;20158;51.436;-2.742;2023-07-31T14:54:20;29.20;57.80
33863;DHT22;20158;51.436;-2.742;2023-07-31T14:56:46;29.30;57.50
33863;DHT22;20158;51.436;-2.742;2023-07-31T14:59:12;29.30;56.90
33863;DHT22;20158;51.436;-2.742;2023-07-31T15:01:38;29.40;56.60
33863;DHT22;20158;51.436;-2.742;2023-07-31T15:04:05;29.40;56.40
33863;DHT22;20158;51.436;-2.742;2023-07-31T15:06:30;29.40;56.20
33863;DHT22;20158;51.436;-2.742;2023-07-31T15:08:56;29.40;56.00
33863;DHT22;20158;51.436;-2.742;2023-07-31T15:11:22;29.40;55.80
33863;DHT22;20158;51.436;-2.742;2023-07-31T15:13:48;29.50;55.60
33863;DHT22;20158;51.436;-2.742;2023-07-31T15:16:14;29.40;56.00
33863;DHT22;20158;51.436;-2.742;2023-07-31T15:18:40;29.40;55.30
33863;DHT22;20158;51.436;-2.742;2023-07-31T15:21:06;29.40;55.20
33863;DHT22;20158;51.436;-2.742;2023-07-31T15:23:34;29.30;55.10
33863;DHT22;20158;51.436;-2.742;2023-07-31T15:26:00;29.30;55.10
33863;DHT22;20158;51.436;-2.742;2023-07-31T15:28:27;29.30;55.10
33863;DHT22;20158;51.436;-2.742;2023-07-31T15:30:53;29.20;55.00